Aviation Digital Data Service (ADDS)

Output produced by METARs form (0955 UTC 28 September 2021)
found at http://www.aviationweather.gov/metar/data/
 
VTCT 280900Z 15004KT 9999 FEW030 29/24 Q1009 NOSIG
VTCT 280800Z VRB02KT 9999 FEW030 29/24 Q1010 NOSIG
VTCT 280700Z 18006KT 130V210 9999 SCT021 29/24 Q1011 NOSIG
VTCT 280600Z 14005KT 090V200 9999 SCT020 28/24 Q1012 NOSIG
VTCT 280530Z 00000KT 9999 BKN017 27/24 Q1014 NOSIG
VTCT 280500Z 00000KT 9999 FEW015 BKN020 27/24 Q1014 NOSIG
VTCT 280400Z 09003KT 040V130 9999 FEW015 BKN020 26/24 Q1014 NOSIG
VTCT 280300Z 04004KT 360V090 9999 FEW011 BKN013 26/24 Q1015 NOSIG
VTCT 280200Z 03008KT 9999 FEW010 SCT013 25/24 Q1014 NOSIG
VTCT 280100Z 02003KT 340V070 9999 FEW005 SCT015 24/24 Q1014 NOSIG
VTCT 280000Z 03002KT 9999 FEW007 SCT017 23/23 Q1013 NOSIG
VTCT 272300Z 01003KT 9999 FEW005 SCT015 23/23 Q1012 NOSIG
VTCT 272200Z 02003KT 9999 FEW008 BKN016 22/22 Q1012 NOSIG
VTCT 272100Z 07003KT 9999 FEW008 23/23 Q1013 NOSIG
VTCT 272000Z VRB01KT CAVOK 23/23 Q1012 NOSIG
VTCT 271900Z VRB02KT CAVOK 23/23 Q1012 NOSIG
VTCT 271800Z VRB02KT 9999 FEW035 23/23 Q1013 NOSIG
VTCT 271700Z 23003KT 8000 -RA SCT025 23/23 Q1014 NOSIG
VTCT 271600Z 25006KT 8000 -RA FEW010 SCT060 23/23 Q1014 NOSIG
VTCT 271500Z 18008KT 8000 -RA FEW010 BKN040 24/24 Q1014 NOSIG
VTCT 271400Z 15005KT 9999 VCTS FEW018CB SCT020 BKN075 25/25 Q1013 TEMPO -TSRA
VTCT 271300Z 19004KT 9999 FEW035 SCT065 25/25 Q1012 TEMPO -TSRA FEW018CB
VTCT 271200Z 18003KT 9999 FEW035 25/25 Q1011 TEMPO 4500 TSRA FEW018CB
VTCT 271100Z 06003KT 9999 SCT040 25/25 Q1010 NOSIG
VTCT 271000Z 01005KT 340V040 9999 FEW007 SCT035 25/25 Q1010 RETS NOSIG
TAF VTCT 280500Z 2806/2912 22005KT 9999 SCT025 
     TEMPO 2806/2812 18015G25KT 4000 TSRA FEW018CB BKN020